createdAt,value
2022-08-21T00:02:17.495Z,14.55
2022-08-21T00:04:48.431Z,12.10
2022-08-21T00:07:28.172Z,15.15
2022-08-21T00:10:00.571Z,15.50
2022-08-21T00:12:30.520Z,16.33
2022-08-21T00:15:00.135Z,14.48
2022-08-21T00:17:30.109Z,17.25
2022-08-21T00:19:59.985Z,14.90
2022-08-21T00:22:29.584Z,15.15
2022-08-21T00:25:01.853Z,17.15
2022-08-21T00:27:31.891Z,16.55
2022-08-21T00:30:01.527Z,14.38
2022-08-21T00:32:31.814Z,13.98
2022-08-21T00:35:01.528Z,12.88
2022-08-21T00:37:31.291Z,16.48
2022-08-21T00:40:09.825Z,15.65
2022-08-21T00:42:39.667Z,18.45
2022-08-21T00:45:10.831Z,14.20
2022-08-21T00:47:40.829Z,8.45
2022-08-21T00:50:21.985Z,15.82
2022-08-21T00:52:53.740Z,14.85
2022-08-21T00:55:30.210Z,18.02
2022-08-21T00:58:03.302Z,12.27
2022-08-21T01:00:35.662Z,15.52
2022-08-21T01:03:08.938Z,17.15
2022-08-21T01:05:39.469Z,18.25
2022-08-21T01:08:10.264Z,13.60
2022-08-21T01:10:44.797Z,17.77
2022-08-21T01:13:17.207Z,17.65
2022-08-21T01:15:50.964Z,12.40
2022-08-21T01:18:21.473Z,17.98
2022-08-21T01:21:05.708Z,15.18
2022-08-21T01:23:36.095Z,10.13
2022-08-21T01:26:06.530Z,10.88
2022-08-21T01:28:39.059Z,11.80
2022-08-21T01:31:10.225Z,9.45
2022-08-21T01:33:39.921Z,11.20
2022-08-21T01:36:12.556Z,12.52
2022-08-21T01:38:42.241Z,9.02
2022-08-21T01:41:12.169Z,10.15
2022-08-21T01:43:41.791Z,13.25
2022-08-21T01:46:12.311Z,8.20
2022-08-21T01:48:42.556Z,10.45
2022-08-21T01:51:14.982Z,9.82
2022-08-21T01:53:44.717Z,10.32
2022-08-21T01:56:16.946Z,11.40
2022-08-21T01:58:48.721Z,14.50
2022-08-21T02:01:18.585Z,14.05
2022-08-21T02:03:48.439Z,14.57
2022-08-21T02:06:20.718Z,14.63
2022-08-21T02:08:51.596Z,15.52
2022-08-21T02:11:21.588Z,14.32
2022-08-21T02:13:51.200Z,12.60
2022-08-21T02:16:20.982Z,17.45
2022-08-21T02:18:51.181Z,11.63
2022-08-21T02:21:23.488Z,12.45
2022-08-21T02:23:53.096Z,11.40
2022-08-21T02:26:23.016Z,13.07
2022-08-21T02:28:52.990Z,13.82
2022-08-21T02:31:22.944Z,14.82
2022-08-21T02:33:52.806Z,17.45
2022-08-21T02:36:25.054Z,16.17
2022-08-21T02:38:54.956Z,18.30
2022-08-21T02:41:25.755Z,16.95
2022-08-21T02:43:55.482Z,16.65
2022-08-21T02:46:25.139Z,16.85
2022-08-21T02:48:54.830Z,14.00
2022-08-21T02:51:27.171Z,17.70
2022-08-21T02:53:56.849Z,18.30
2022-08-21T02:56:26.527Z,19.02
2022-08-21T02:59:01.165Z,14.45
2022-08-21T03:04:00.569Z,15.73
2022-08-21T03:06:32.953Z,15.88
2022-08-21T03:09:02.564Z,16.33
2022-08-21T03:11:32.236Z,14.65
2022-08-21T03:14:01.904Z,15.32
2022-08-21T03:16:34.924Z,16.00
2022-08-21T03:19:05.624Z,20.42
2022-08-21T03:21:37.843Z,15.55
2022-08-21T03:24:08.032Z,15.43
2022-08-21T03:26:37.664Z,15.20
2022-08-21T03:29:10.225Z,14.82
2022-08-21T03:31:40.248Z,19.38
2022-08-21T03:34:09.958Z,18.88
2022-08-21T03:36:42.209Z,15.85
2022-08-21T03:39:11.857Z,21.33
2022-08-21T03:41:41.501Z,17.83
2022-08-21T03:44:11.474Z,13.70
2022-08-21T03:46:41.206Z,16.30
2022-08-21T03:49:10.835Z,17.30
2022-08-21T03:51:43.519Z,18.70
2022-08-21T03:54:13.135Z,19.35
2022-08-21T03:56:43.076Z,18.20
2022-08-21T03:59:12.948Z,15.35
2022-08-21T04:01:42.999Z,20.90
2022-08-21T04:04:12.652Z,24.45
2022-08-21T04:06:46.076Z,21.38
2022-08-21T04:09:15.706Z,19.92
2022-08-21T04:11:46.438Z,20.23
2022-08-21T04:14:16.434Z,19.27
2022-08-21T04:16:46.850Z,16.75
2022-08-21T04:19:17.024Z,23.95
2022-08-21T04:21:50.685Z,20.98
2022-08-21T04:24:22.674Z,20.00
2022-08-21T04:26:52.312Z,19.50
2022-08-21T04:29:21.939Z,19.33
2022-08-21T04:31:51.916Z,18.73
2022-08-21T04:34:21.696Z,22.45
2022-08-21T04:36:53.954Z,22.98
2022-08-21T04:39:29.528Z,24.92
2022-08-21T04:41:59.707Z,23.55
2022-08-21T04:44:29.377Z,20.63
2022-08-21T04:46:59.042Z,21.92
2022-08-21T04:49:28.726Z,21.80
2022-08-21T04:52:01.114Z,17.67
2022-08-21T04:54:30.953Z,25.45
2022-08-21T04:57:04.526Z,20.55
2022-08-21T04:59:37.284Z,27.45
2022-08-21T05:02:08.126Z,18.33
2022-08-21T05:04:38.887Z,22.20
2022-08-21T05:07:41.739Z,25.05
2022-08-21T05:10:13.853Z,19.25
2022-08-21T05:12:45.283Z,18.73
2022-08-21T05:15:15.700Z,19.27
2022-08-21T05:17:52.548Z,22.15
2022-08-21T05:20:30.462Z,22.30
2022-08-21T05:23:02.692Z,19.95
2022-08-21T05:25:32.839Z,22.13
2022-08-21T05:28:04.241Z,16.48
2022-08-21T05:30:34.248Z,21.55
2022-08-21T05:33:05.271Z,21.67
2022-08-21T05:35:35.873Z,16.00
2022-08-21T05:38:17.930Z,19.95
2022-08-21T05:40:48.516Z,17.95
2022-08-21T05:43:18.326Z,16.75
2022-08-21T05:45:48.288Z,18.00
2022-08-21T05:48:20.690Z,18.88
2022-08-21T05:50:51.308Z,17.05
2022-08-21T05:53:24.798Z,19.95
2022-08-21T05:55:55.273Z,18.13
2022-08-21T05:58:25.934Z,19.38
2022-08-21T06:00:55.840Z,18.75
2022-08-21T06:03:27.761Z,15.95
2022-08-21T06:05:57.854Z,19.38
2022-08-21T06:08:30.639Z,16.88
2022-08-21T06:11:02.758Z,20.00
2022-08-21T06:13:32.950Z,16.60
2022-08-21T06:16:07.469Z,20.58
2022-08-21T06:18:37.508Z,15.82
2022-08-21T06:21:07.599Z,16.35
2022-08-21T06:23:39.799Z,13.95
2022-08-21T06:26:10.861Z,16.65
2022-08-21T06:28:40.710Z,14.52
2022-08-21T06:31:15.399Z,21.15
2022-08-21T06:33:45.114Z,12.23
2022-08-21T06:36:14.875Z,12.18
2022-08-21T06:38:51.286Z,10.70
2022-08-21T06:41:23.799Z,13.73
2022-08-21T06:43:54.294Z,8.77
2022-08-21T06:46:24.467Z,11.35
2022-08-21T06:48:54.218Z,11.23
2022-08-21T06:51:23.900Z,7.55
2022-08-21T06:53:56.383Z,11.68
2022-08-21T06:56:29.159Z,5.43
2022-08-21T06:59:01.195Z,8.18
2022-08-21T07:01:30.944Z,9.20
2022-08-21T07:04:00.682Z,8.77
2022-08-21T07:06:30.375Z,7.55
2022-08-21T07:09:06.888Z,8.52
2022-08-21T07:11:38.463Z,5.28
2022-08-21T07:14:20.232Z,9.38
2022-08-21T07:16:50.429Z,5.40
2022-08-21T07:19:20.117Z,7.72
2022-08-21T07:21:50.151Z,7.57
2022-08-21T07:24:23.045Z,6.28
2022-08-21T07:26:52.764Z,4.63
2022-08-21T07:29:22.521Z,7.90
2022-08-21T07:31:52.170Z,5.15
2022-08-21T07:34:21.779Z,6.68
2022-08-21T07:36:51.433Z,7.95
2022-08-21T07:39:23.692Z,9.05
2022-08-21T07:41:53.339Z,5.55
2022-08-21T07:44:22.990Z,7.78
2022-08-21T07:46:52.799Z,7.18
2022-08-21T07:49:22.438Z,8.27
2022-08-21T07:51:52.116Z,5.78
2022-08-21T07:54:33.624Z,7.97
2022-08-21T07:57:04.171Z,11.43
2022-08-21T07:59:33.866Z,5.88
2022-08-21T08:02:03.520Z,6.68
2022-08-21T08:04:33.996Z,7.78
2022-08-21T08:07:03.643Z,5.93
2022-08-21T08:09:36.306Z,5.30
2022-08-21T08:14:36.044Z,6.05
2022-08-21T08:17:05.848Z,5.78
2022-08-21T08:19:35.518Z,4.10
2022-08-21T08:22:05.236Z,5.57
2022-08-21T08:24:42.409Z,4.47
2022-08-21T08:27:12.693Z,7.25
2022-08-21T08:29:42.433Z,7.63
2022-08-21T08:32:12.097Z,4.20
2022-08-21T08:34:43.810Z,3.90
2022-08-21T08:37:14.200Z,4.77
2022-08-21T08:39:47.360Z,5.97
2022-08-21T08:42:33.661Z,4.90
2022-08-21T08:45:07.646Z,5.07
2022-08-21T08:47:39.391Z,4.70
2022-08-21T08:50:11.859Z,5.83
2022-08-21T08:55:27.285Z,5.70
2022-08-21T08:57:58.210Z,5.82
2022-08-21T09:00:28.503Z,7.75
2022-08-21T09:03:00.727Z,7.47
2022-08-21T09:08:23.872Z,7.40
2022-08-21T09:11:02.706Z,6.28
2022-08-21T09:13:42.195Z,11.38
2022-08-21T09:16:20.694Z,5.97
2022-08-21T09:18:57.237Z,4.78
2022-08-21T09:21:42.822Z,4.82
2022-08-21T09:24:25.022Z,4.65
2022-08-21T09:27:03.294Z,6.22
2022-08-21T09:29:35.940Z,4.38
2022-08-21T09:35:00.444Z,4.43
2022-08-21T09:37:32.504Z,3.45
2022-08-21T09:40:02.596Z,7.65
2022-08-21T09:42:35.905Z,2.85
2022-08-21T09:45:15.368Z,4.60
2022-08-21T09:47:46.568Z,6.90
2022-08-21T09:50:18.692Z,5.90
2022-08-21T09:52:52.308Z,4.95
2022-08-21T09:55:46.951Z,4.20
2022-08-21T09:58:20.619Z,4.75
2022-08-21T10:01:01.494Z,3.78
2022-08-21T10:03:31.537Z,4.95
2022-08-21T10:06:09.197Z,2.72
2022-08-21T10:08:41.915Z,4.97
2022-08-21T10:13:54.216Z,3.70
2022-08-21T10:16:34.999Z,2.45
2022-08-21T10:19:14.785Z,6.50
2022-08-21T10:21:53.570Z,2.90
2022-08-21T10:24:31.796Z,3.70
2022-08-21T10:27:09.926Z,5.03
2022-08-21T10:29:50.478Z,5.38
2022-08-21T10:32:31.459Z,4.15
2022-08-21T10:35:06.562Z,3.95
2022-08-21T10:37:44.408Z,4.78
2022-08-21T10:40:20.354Z,4.07
2022-08-21T10:42:59.847Z,5.07
2022-08-21T10:45:42.986Z,3.75
2022-08-21T10:48:20.122Z,2.88
2022-08-21T10:50:54.802Z,4.28
2022-08-21T10:53:41.126Z,2.50
2022-08-21T10:56:18.616Z,6.97
2022-08-21T10:58:53.743Z,2.30
2022-08-21T11:01:30.141Z,6.10
2022-08-21T11:04:11.629Z,5.53
2022-08-21T11:06:43.957Z,4.93
2022-08-21T11:09:17.012Z,4.03
2022-08-21T11:11:59.374Z,3.47
2022-08-21T11:14:49.778Z,3.92
2022-08-21T11:17:26.854Z,6.25
2022-08-21T11:20:01.538Z,4.65
2022-08-21T11:22:37.660Z,5.60
2022-08-21T11:25:11.930Z,2.97
2022-08-21T11:27:45.100Z,3.95
2022-08-21T11:30:16.159Z,3.45
2022-08-21T11:33:00.944Z,7.35
2022-08-21T11:35:38.741Z,3.63
2022-08-21T11:38:23.080Z,3.90
2022-08-21T11:41:02.957Z,5.20
2022-08-21T11:43:40.745Z,4.40
2022-08-21T11:46:30.253Z,5.00
2022-08-21T11:49:13.712Z,3.53
2022-08-21T11:51:47.774Z,5.13
2022-08-21T11:54:24.128Z,3.50
2022-08-21T11:56:58.092Z,2.53
2022-08-21T11:59:36.513Z,2.67
2022-08-21T12:02:14.858Z,3.30
2022-08-21T12:04:52.036Z,4.82
2022-08-21T12:07:35.383Z,3.10
2022-08-21T12:10:06.438Z,3.20
2022-08-21T12:12:38.124Z,2.88
2022-08-21T12:15:18.465Z,5.70
2022-08-21T12:18:06.293Z,6.07
2022-08-21T12:20:50.210Z,5.65
2022-08-21T12:23:31.928Z,2.75
2022-08-21T12:26:22.712Z,3.03
2022-08-21T12:28:52.616Z,1.92
2022-08-21T12:31:24.953Z,2.03
2022-08-21T12:33:59.212Z,2.35
2022-08-21T12:36:39.079Z,3.42
2022-08-21T12:39:16.470Z,4.80
2022-08-21T12:41:52.352Z,2.92
2022-08-21T12:44:26.484Z,2.88
2022-08-21T12:47:00.126Z,5.38
2022-08-21T12:49:33.072Z,3.40
2022-08-21T12:52:13.506Z,5.68
2022-08-21T12:54:44.906Z,3.70
2022-08-21T12:57:23.509Z,4.88
2022-08-21T12:59:58.018Z,4.18
2022-08-21T13:02:32.673Z,3.25
2022-08-21T13:05:06.478Z,4.45
2022-08-21T13:07:39.877Z,3.75
2022-08-21T13:10:18.261Z,6.00
2022-08-21T13:12:48.373Z,3.38
2022-08-21T13:15:18.668Z,2.78
2022-08-21T13:17:52.770Z,4.35
2022-08-21T13:20:25.203Z,5.55
2022-08-21T13:22:57.639Z,2.38
2022-08-21T13:25:31.018Z,5.72
2022-08-21T13:28:02.957Z,4.55
2022-08-21T13:30:34.036Z,3.47
2022-08-21T13:33:09.751Z,5.07
2022-08-21T13:35:51.619Z,3.63
2022-08-21T13:38:27.292Z,3.17
2022-08-21T13:40:59.700Z,3.05
2022-08-21T13:43:30.789Z,2.22
2022-08-21T13:46:00.844Z,3.70
2022-08-21T13:48:34.285Z,3.85
2022-08-21T13:53:37.886Z,5.00
2022-08-21T13:56:08.438Z,2.80
2022-08-21T13:58:46.577Z,3.67
2022-08-21T14:01:23.582Z,1.77
2022-08-21T14:03:55.621Z,4.32
2022-08-21T14:06:26.874Z,4.85
2022-08-21T14:09:02.176Z,2.70
2022-08-21T14:11:36.964Z,5.90
2022-08-21T14:14:09.951Z,3.30
2022-08-21T14:16:48.422Z,4.22
2022-08-21T14:19:24.157Z,7.80
2022-08-21T14:21:55.380Z,2.90
2022-08-21T14:24:36.560Z,4.35
2022-08-21T14:27:07.897Z,4.00
2022-08-21T14:29:39.701Z,4.75
2022-08-21T14:32:21.637Z,2.88
2022-08-21T14:34:55.120Z,1.80
2022-08-21T14:37:28.201Z,2.75
2022-08-21T14:40:00.548Z,2.33
2022-08-21T14:42:30.349Z,2.63
2022-08-21T14:45:03.547Z,2.55
2022-08-21T14:47:33.241Z,2.30
2022-08-21T14:50:02.911Z,1.65
2022-08-21T14:52:33.398Z,6.38
2022-08-21T14:55:05.613Z,2.17
2022-08-21T14:57:37.516Z,1.25
2022-08-21T15:00:09.161Z,4.90
2022-08-21T15:02:40.882Z,1.88
2022-08-21T15:05:11.100Z,2.78
2022-08-21T15:07:40.783Z,1.58
2022-08-21T15:10:13.852Z,1.80
2022-08-21T15:12:44.124Z,2.92
2022-08-21T15:15:14.006Z,1.77
2022-08-21T15:17:48.472Z,5.40
2022-08-21T15:20:18.489Z,1.58
2022-08-21T15:22:48.241Z,4.57
2022-08-21T15:25:20.531Z,3.05
2022-08-21T15:27:50.301Z,3.72
2022-08-21T15:30:20.021Z,2.75
2022-08-21T15:32:49.645Z,2.80
2022-08-21T15:35:20.233Z,2.15
2022-08-21T15:37:49.861Z,4.35
2022-08-21T15:40:22.365Z,2.80
2022-08-21T15:42:53.926Z,4.87
2022-08-21T15:45:23.643Z,2.13
2022-08-21T15:47:53.773Z,2.85
2022-08-21T15:50:24.200Z,2.50
2022-08-21T15:52:54.144Z,2.75
2022-08-21T15:55:27.284Z,4.90
2022-08-21T15:57:59.205Z,2.38
2022-08-21T16:00:31.255Z,4.35
2022-08-21T16:03:02.317Z,3.25
2022-08-21T16:05:32.852Z,1.67
2022-08-21T16:08:03.075Z,2.63
2022-08-21T16:10:36.016Z,1.90
2022-08-21T16:13:08.330Z,2.28
2022-08-21T16:15:38.347Z,4.43
2022-08-21T16:18:08.458Z,1.50
2022-08-21T16:20:38.088Z,3.20
2022-08-21T16:23:07.740Z,3.55
2022-08-21T16:25:41.890Z,1.17
2022-08-21T16:28:13.896Z,3.45
2022-08-21T16:30:44.015Z,3.28
2022-08-21T16:33:25.017Z,3.20
2022-08-21T16:35:55.455Z,2.42
2022-08-21T16:38:26.174Z,2.15
2022-08-21T16:40:58.729Z,2.03
2022-08-21T16:43:31.614Z,1.33
2022-08-21T16:46:02.879Z,2.35
2022-08-21T16:48:32.572Z,4.82
2022-08-21T16:51:02.228Z,2.65
2022-08-21T16:53:31.986Z,1.80
2022-08-21T16:56:04.251Z,2.75
2022-08-21T16:58:36.025Z,3.85
2022-08-21T17:01:09.069Z,2.38
2022-08-21T17:03:42.080Z,1.85
2022-08-21T17:06:12.850Z,1.88
2022-08-21T17:08:42.788Z,2.20
2022-08-21T17:11:36.467Z,2.35
2022-08-21T17:14:10.904Z,2.70
2022-08-21T17:16:41.351Z,2.10
2022-08-21T17:19:13.057Z,1.77
2022-08-21T17:21:42.793Z,2.13
2022-08-21T17:24:13.031Z,3.47
2022-08-21T17:26:45.746Z,2.55
2022-08-21T17:29:16.452Z,2.77
2022-08-21T17:31:47.409Z,2.65
2022-08-21T17:34:17.208Z,3.33
2022-08-21T17:36:46.933Z,1.63
2022-08-21T17:39:21.954Z,1.85
2022-08-21T17:41:58.277Z,1.90
2022-08-21T17:44:28.428Z,2.05
2022-08-21T17:46:58.099Z,3.08
2022-08-21T17:49:27.757Z,3.20
2022-08-21T17:51:57.389Z,3.40
2022-08-21T17:54:27.043Z,2.10
2022-08-21T17:57:00.045Z,4.72
2022-08-21T17:59:29.837Z,5.32
2022-08-21T18:02:01.692Z,5.18
2022-08-21T18:04:32.225Z,2.20
2022-08-21T18:07:01.870Z,2.42
2022-08-21T18:09:31.593Z,2.60
2022-08-21T18:12:05.589Z,4.55
2022-08-21T18:14:37.617Z,2.95
2022-08-21T18:17:10.847Z,1.98
2022-08-21T18:19:44.041Z,1.48
2022-08-21T18:22:19.156Z,3.42
2022-08-21T18:24:48.873Z,2.13
2022-08-21T18:27:23.057Z,3.33
2022-08-21T18:29:56.069Z,3.90
2022-08-21T18:32:30.925Z,4.50
2022-08-21T18:35:03.684Z,3.13
2022-08-21T18:37:33.452Z,1.83
2022-08-21T18:40:03.604Z,3.45
2022-08-21T18:42:40.804Z,2.92
2022-08-21T18:45:16.813Z,3.72
2022-08-21T18:47:48.786Z,2.15
2022-08-21T18:50:22.220Z,2.95
2022-08-21T18:52:55.367Z,3.53
2022-08-21T18:55:26.054Z,3.13
2022-08-21T18:58:00.702Z,2.90
2022-08-21T19:00:34.724Z,3.95
2022-08-21T19:03:05.952Z,2.75
2022-08-21T19:05:36.405Z,2.47
2022-08-21T19:08:08.307Z,2.03
2022-08-21T19:10:43.403Z,3.28
2022-08-21T19:13:20.018Z,4.25
2022-08-21T19:15:52.979Z,2.85
2022-08-21T19:18:28.160Z,3.42
2022-08-21T19:20:58.538Z,3.13
2022-08-21T19:23:30.138Z,4.60
2022-08-21T19:26:01.264Z,4.97
2022-08-21T19:28:36.339Z,4.20
2022-08-21T19:31:10.926Z,3.65
2022-08-21T19:33:44.275Z,4.72
2022-08-21T19:36:14.444Z,3.08
2022-08-21T19:38:45.424Z,3.03
2022-08-21T19:41:17.403Z,3.03
2022-08-21T19:43:52.522Z,6.00
2022-08-21T19:46:25.907Z,2.85
2022-08-21T19:48:56.822Z,3.38
2022-08-21T19:51:27.505Z,4.88
2022-08-21T19:53:57.530Z,4.53
2022-08-21T19:56:29.500Z,4.35
2022-08-21T19:59:04.929Z,7.75
2022-08-21T20:01:36.905Z,5.15
2022-08-21T20:04:10.995Z,3.93
2022-08-21T20:06:49.113Z,5.32
2022-08-21T20:09:19.629Z,4.15
2022-08-21T20:11:52.111Z,4.50
2022-08-21T20:14:27.095Z,4.70
2022-08-21T20:17:02.238Z,7.55
2022-08-21T20:19:33.005Z,4.53
2022-08-21T20:22:03.229Z,2.88
2022-08-21T20:24:34.013Z,5.05
2022-08-21T20:27:05.997Z,3.25
2022-08-21T20:29:57.317Z,5.38
2022-08-21T20:32:28.525Z,6.32
2022-08-21T20:34:59.053Z,4.90
2022-08-21T20:37:36.316Z,4.05
2022-08-21T20:40:11.529Z,5.50
2022-08-21T20:42:42.836Z,3.15
2022-08-21T20:45:28.982Z,3.97
2022-08-21T20:50:32.263Z,5.80
2022-08-21T20:53:07.376Z,6.00
2022-08-21T20:55:38.435Z,5.68
2022-08-21T20:58:12.647Z,8.27
2022-08-21T21:00:45.981Z,4.63
2022-08-21T21:03:30.257Z,2.80
2022-08-21T21:06:03.620Z,3.25
2022-08-21T21:08:37.395Z,4.57
2022-08-21T21:11:11.195Z,4.28
2022-08-21T21:13:48.701Z,4.07
2022-08-21T21:19:21.714Z,3.92
2022-08-21T21:22:11.183Z,5.03
2022-08-21T21:24:46.523Z,3.83
2022-08-21T21:27:20.589Z,2.60
2022-08-21T21:29:55.378Z,4.53
2022-08-21T21:32:30.033Z,5.07
2022-08-21T21:34:59.773Z,7.10
2022-08-21T21:37:34.897Z,4.35
2022-08-21T21:40:17.047Z,7.05
2022-08-21T21:42:56.703Z,2.58
2022-08-21T21:45:29.888Z,5.05
2022-08-21T21:48:11.628Z,3.67
2022-08-21T21:50:54.587Z,5.32
2022-08-21T21:53:51.662Z,4.05
2022-08-21T21:56:27.546Z,4.18
2022-08-21T21:59:13.165Z,4.07
2022-08-21T22:01:49.875Z,4.32
2022-08-21T22:04:28.547Z,5.05
2022-08-21T22:07:03.833Z,3.47
2022-08-21T22:09:42.885Z,6.15
2022-08-21T22:12:29.016Z,3.33
2022-08-21T22:14:58.954Z,4.18
2022-08-21T22:17:43.954Z,6.18
2022-08-21T22:20:22.866Z,6.30
2022-08-21T22:22:55.955Z,3.70
2022-08-21T22:25:28.741Z,5.20
2022-08-21T22:28:06.406Z,3.35
2022-08-21T22:30:42.720Z,4.53
2022-08-21T22:33:19.977Z,3.42
2022-08-21T22:35:54.182Z,3.85
2022-08-21T22:38:33.397Z,2.50
2022-08-21T22:41:17.295Z,5.85
2022-08-21T22:43:56.661Z,2.78
2022-08-21T22:46:32.049Z,4.47
2022-08-21T22:49:06.076Z,5.00
2022-08-21T22:51:42.118Z,3.67
2022-08-21T22:57:07.304Z,4.07
2022-08-21T22:59:42.721Z,4.63
2022-08-21T23:02:35.361Z,5.75
2022-08-21T23:05:25.318Z,3.20
2022-08-21T23:07:58.841Z,3.17
2022-08-21T23:10:32.443Z,3.88
2022-08-21T23:13:09.227Z,8.43
2022-08-21T23:15:45.417Z,5.57
2022-08-21T23:18:21.199Z,4.40
2022-08-21T23:20:58.365Z,4.57
2022-08-21T23:23:34.983Z,3.67
2022-08-21T23:26:22.800Z,5.53
2022-08-21T23:29:12.210Z,5.68
2022-08-21T23:31:47.346Z,5.22
2022-08-21T23:34:25.554Z,4.88
2022-08-21T23:37:48.718Z,4.85
2022-08-21T23:40:38.870Z,9.45
2022-08-21T23:43:29.237Z,5.30
2022-08-21T23:46:19.921Z,4.68
2022-08-21T23:49:10.023Z,5.35
2022-08-21T23:51:45.697Z,5.30
2022-08-21T23:54:22.573Z,5.30
2022-08-21T23:57:08.024Z,4.05
2022-08-21T23:59:46.880Z,4.78
